sensor_id;sensor_type;location;lat;lon;timestamp;P1;durP1;ratioP1;P2;durP2;ratioP2
76675;SDS011;69204;55.350;36.906;2023-12-20T00:03:44;23.25;;;6.88;;
76675;SDS011;69204;55.350;36.906;2023-12-20T00:08:45;26.95;;;6.95;;
76675;SDS011;69204;55.350;36.906;2023-12-20T00:13:46;23.77;;;6.87;;
76675;SDS011;69204;55.350;36.906;2023-12-20T00:18:47;19.27;;;6.82;;
76675;SDS011;69204;55.350;36.906;2023-12-20T00:23:49;21.52;;;6.93;;
76675;SDS011;69204;55.350;36.906;2023-12-20T00:28:50;20.00;;;7.53;;
76675;SDS011;69204;55.350;36.906;2023-12-20T00:33:51;24.08;;;7.50;;
76675;SDS011;69204;55.350;36.906;2023-12-20T00:38:52;19.47;;;7.23;;
76675;SDS011;69204;55.350;36.906;2023-12-20T00:43:54;22.90;;;7.07;;
76675;SDS011;69204;55.350;36.906;2023-12-20T00:48:55;22.95;;;7.75;;
76675;SDS011;69204;55.350;36.906;2023-12-20T00:53:59;21.25;;;8.00;;
76675;SDS011;69204;55.350;36.906;2023-12-20T00:59:00;25.23;;;7.93;;
76675;SDS011;69204;55.350;36.906;2023-12-20T01:04:01;22.77;;;8.03;;
76675;SDS011;69204;55.350;36.906;2023-12-20T01:09:02;21.23;;;7.97;;
76675;SDS011;69204;55.350;36.906;2023-12-20T01:14:04;19.13;;;6.90;;
76675;SDS011;69204;55.350;36.906;2023-12-20T01:19:05;19.20;;;7.20;;
76675;SDS011;69204;55.350;36.906;2023-12-20T01:24:07;21.58;;;8.90;;
76675;SDS011;69204;55.350;36.906;2023-12-20T01:29:08;18.93;;;7.57;;
76675;SDS011;69204;55.350;36.906;2023-12-20T01:34:09;17.83;;;5.82;;
76675;SDS011;69204;55.350;36.906;2023-12-20T01:39:10;20.97;;;7.53;;
76675;SDS011;69204;55.350;36.906;2023-12-20T01:44:11;19.88;;;6.90;;
76675;SDS011;69204;55.350;36.906;2023-12-20T01:49:12;21.23;;;6.78;;
76675;SDS011;69204;55.350;36.906;2023-12-20T01:54:14;16.77;;;5.93;;
76675;SDS011;69204;55.350;36.906;2023-12-20T01:59:15;17.90;;;5.50;;
76675;SDS011;69204;55.350;36.906;2023-12-20T02:04:16;19.17;;;5.90;;
76675;SDS011;69204;55.350;36.906;2023-12-20T02:09:17;21.77;;;5.95;;
76675;SDS011;69204;55.350;36.906;2023-12-20T02:14:19;16.30;;;6.13;;
76675;SDS011;69204;55.350;36.906;2023-12-20T02:19:20;17.83;;;6.73;;
76675;SDS011;69204;55.350;36.906;2023-12-20T02:24:21;15.93;;;5.50;;
76675;SDS011;69204;55.350;36.906;2023-12-20T02:29:23;12.00;;;5.30;;
76675;SDS011;69204;55.350;36.906;2023-12-20T02:34:24;12.63;;;5.18;;
76675;SDS011;69204;55.350;36.906;2023-12-20T02:39:25;13.00;;;5.28;;
76675;SDS011;69204;55.350;36.906;2023-12-20T02:44:26;14.67;;;5.47;;
76675;SDS011;69204;55.350;36.906;2023-12-20T02:49:27;15.32;;;5.85;;
76675;SDS011;69204;55.350;36.906;2023-12-20T02:54:28;13.93;;;6.03;;
76675;SDS011;69204;55.350;36.906;2023-12-20T02:59:29;15.95;;;5.55;;
76675;SDS011;69204;55.350;36.906;2023-12-20T03:04:33;15.18;;;6.20;;
76675;SDS011;69204;55.350;36.906;2023-12-20T03:09:35;22.60;;;6.60;;
76675;SDS011;69204;55.350;36.906;2023-12-20T03:14:36;14.13;;;6.10;;
76675;SDS011;69204;55.350;36.906;2023-12-20T03:19:37;13.73;;;6.07;;
76675;SDS011;69204;55.350;36.906;2023-12-20T03:24:39;15.35;;;5.93;;
76675;SDS011;69204;55.350;36.906;2023-12-20T03:29:40;17.27;;;7.55;;
76675;SDS011;69204;55.350;36.906;2023-12-20T03:34:42;11.90;;;5.60;;
76675;SDS011;69204;55.350;36.906;2023-12-20T03:39:44;16.88;;;5.10;;
76675;SDS011;69204;55.350;36.906;2023-12-20T03:44:45;20.40;;;6.53;;
76675;SDS011;69204;55.350;36.906;2023-12-20T03:49:46;15.00;;;6.70;;
76675;SDS011;69204;55.350;36.906;2023-12-20T03:54:50;13.93;;;6.05;;
76675;SDS011;69204;55.350;36.906;2023-12-20T03:59:52;12.33;;;5.57;;
76675;SDS011;69204;55.350;36.906;2023-12-20T04:04:53;14.15;;;6.63;;
76675;SDS011;69204;55.350;36.906;2023-12-20T04:09:54;17.07;;;7.90;;
76675;SDS011;69204;55.350;36.906;2023-12-20T04:14:56;15.65;;;6.93;;
76675;SDS011;69204;55.350;36.906;2023-12-20T04:20:00;18.13;;;7.07;;
76675;SDS011;69204;55.350;36.906;2023-12-20T04:25:02;15.23;;;7.07;;
76675;SDS011;69204;55.350;36.906;2023-12-20T04:30:05;15.35;;;7.97;;
76675;SDS011;69204;55.350;36.906;2023-12-20T04:35:12;16.23;;;7.73;;
76675;SDS011;69204;55.350;36.906;2023-12-20T04:40:19;13.05;;;6.38;;
76675;SDS011;69204;55.350;36.906;2023-12-20T04:45:20;14.18;;;6.60;;
76675;SDS011;69204;55.350;36.906;2023-12-20T04:50:21;13.73;;;7.17;;
76675;SDS011;69204;55.350;36.906;2023-12-20T04:55:23;15.18;;;6.53;;
76675;SDS011;69204;55.350;36.906;2023-12-20T05:00:25;12.23;;;6.67;;
76675;SDS011;69204;55.350;36.906;2023-12-20T05:05:26;15.02;;;6.07;;
76675;SDS011;69204;55.350;36.906;2023-12-20T05:10:28;15.90;;;7.13;;
76675;SDS011;69204;55.350;36.906;2023-12-20T05:15:29;13.20;;;5.60;;
76675;SDS011;69204;55.350;36.906;2023-12-20T05:20:30;12.48;;;5.65;;
76675;SDS011;69204;55.350;36.906;2023-12-20T05:25:32;16.23;;;5.70;;
76675;SDS011;69204;55.350;36.906;2023-12-20T05:30:33;10.70;;;4.78;;
76675;SDS011;69204;55.350;36.906;2023-12-20T05:35:34;10.05;;;4.60;;
76675;SDS011;69204;55.350;36.906;2023-12-20T05:40:36;12.07;;;4.97;;
76675;SDS011;69204;55.350;36.906;2023-12-20T05:45:46;10.00;;;4.68;;
76675;SDS011;69204;55.350;36.906;2023-12-20T05:50:47;9.87;;;4.37;;
76675;SDS011;69204;55.350;36.906;2023-12-20T05:55:49;11.43;;;4.50;;
76675;SDS011;69204;55.350;36.906;2023-12-20T06:00:51;9.65;;;4.05;;
76675;SDS011;69204;55.350;36.906;2023-12-20T06:05:52;10.73;;;4.53;;
76675;SDS011;69204;55.350;36.906;2023-12-20T06:10:53;11.43;;;4.18;;
76675;SDS011;69204;55.350;36.906;2023-12-20T06:15:55;10.17;;;5.10;;
76675;SDS011;69204;55.350;36.906;2023-12-20T06:20:56;10.63;;;4.25;;
76675;SDS011;69204;55.350;36.906;2023-12-20T06:26:00;9.98;;;3.65;;
76675;SDS011;69204;55.350;36.906;2023-12-20T06:31:02;11.87;;;4.60;;
76675;SDS011;69204;55.350;36.906;2023-12-20T06:36:04;10.23;;;3.83;;
76675;SDS011;69204;55.350;36.906;2023-12-20T06:41:05;10.47;;;4.80;;
76675;SDS011;69204;55.350;36.906;2023-12-20T06:46:09;13.35;;;4.20;;
76675;SDS011;69204;55.350;36.906;2023-12-20T06:51:11;11.52;;;4.75;;
76675;SDS011;69204;55.350;36.906;2023-12-20T06:56:15;10.57;;;4.10;;
76675;SDS011;69204;55.350;36.906;2023-12-20T07:01:17;13.05;;;4.60;;
76675;SDS011;69204;55.350;36.906;2023-12-20T07:06:18;11.30;;;4.07;;
76675;SDS011;69204;55.350;36.906;2023-12-20T07:11:21;10.98;;;4.47;;
76675;SDS011;69204;55.350;36.906;2023-12-20T07:16:22;9.55;;;4.00;;
76675;SDS011;69204;55.350;36.906;2023-12-20T07:21:24;8.23;;;3.97;;
76675;SDS011;69204;55.350;36.906;2023-12-20T07:26:25;9.35;;;4.38;;
76675;SDS011;69204;55.350;36.906;2023-12-20T07:31:26;9.70;;;4.40;;
76675;SDS011;69204;55.350;36.906;2023-12-20T07:36:28;7.85;;;4.10;;
76675;SDS011;69204;55.350;36.906;2023-12-20T07:41:29;10.55;;;4.80;;
76675;SDS011;69204;55.350;36.906;2023-12-20T07:46:30;10.43;;;5.50;;
76675;SDS011;69204;55.350;36.906;2023-12-20T07:51:31;10.70;;;5.32;;
76675;SDS011;69204;55.350;36.906;2023-12-20T07:56:32;12.17;;;6.50;;
76675;SDS011;69204;55.350;36.906;2023-12-20T08:01:33;13.63;;;5.10;;
76675;SDS011;69204;55.350;36.906;2023-12-20T08:06:35;10.93;;;4.95;;
76675;SDS011;69204;55.350;36.906;2023-12-20T08:11:36;7.97;;;3.93;;
76675;SDS011;69204;55.350;36.906;2023-12-20T08:16:37;6.63;;;3.67;;
76675;SDS011;69204;55.350;36.906;2023-12-20T08:21:39;6.90;;;3.63;;
76675;SDS011;69204;55.350;36.906;2023-12-20T08:26:40;6.80;;;3.38;;
76675;SDS011;69204;55.350;36.906;2023-12-20T08:31:41;5.88;;;3.22;;
76675;SDS011;69204;55.350;36.906;2023-12-20T08:36:43;6.20;;;3.00;;
76675;SDS011;69204;55.350;36.906;2023-12-20T08:41:44;7.32;;;3.30;;
76675;SDS011;69204;55.350;36.906;2023-12-20T08:46:45;6.40;;;3.70;;
76675;SDS011;69204;55.350;36.906;2023-12-20T08:51:48;6.20;;;3.60;;
76675;SDS011;69204;55.350;36.906;2023-12-20T08:56:50;7.95;;;3.50;;
76675;SDS011;69204;55.350;36.906;2023-12-20T09:01:51;8.37;;;3.80;;
76675;SDS011;69204;55.350;36.906;2023-12-20T09:06:55;6.68;;;3.50;;
76675;SDS011;69204;55.350;36.906;2023-12-20T09:11:56;7.87;;;3.80;;
76675;SDS011;69204;55.350;36.906;2023-12-20T09:16:57;6.80;;;3.33;;
76675;SDS011;69204;55.350;36.906;2023-12-20T09:21:59;5.22;;;2.95;;
76675;SDS011;69204;55.350;36.906;2023-12-20T09:27:04;6.50;;;3.30;;
76675;SDS011;69204;55.350;36.906;2023-12-20T09:32:06;7.05;;;3.67;;
76675;SDS011;69204;55.350;36.906;2023-12-20T09:37:08;6.50;;;3.53;;
76675;SDS011;69204;55.350;36.906;2023-12-20T09:42:09;6.75;;;3.70;;
76675;SDS011;69204;55.350;36.906;2023-12-20T09:47:12;6.43;;;3.28;;
76675;SDS011;69204;55.350;36.906;2023-12-20T09:52:15;7.30;;;3.77;;
76675;SDS011;69204;55.350;36.906;2023-12-20T09:57:16;7.35;;;3.75;;
76675;SDS011;69204;55.350;36.906;2023-12-20T10:02:17;6.67;;;3.77;;
76675;SDS011;69204;55.350;36.906;2023-12-20T10:07:22;7.72;;;4.00;;
76675;SDS011;69204;55.350;36.906;2023-12-20T10:12:29;6.95;;;3.47;;
76675;SDS011;69204;55.350;36.906;2023-12-20T10:17:30;7.77;;;3.97;;
76675;SDS011;69204;55.350;36.906;2023-12-20T10:22:31;8.60;;;4.07;;
76675;SDS011;69204;55.350;36.906;2023-12-20T10:27:33;7.97;;;4.27;;
76675;SDS011;69204;55.350;36.906;2023-12-20T10:32:34;10.15;;;4.47;;
76675;SDS011;69204;55.350;36.906;2023-12-20T10:37:36;10.98;;;4.40;;
76675;SDS011;69204;55.350;36.906;2023-12-20T10:42:39;8.93;;;4.30;;
76675;SDS011;69204;55.350;36.906;2023-12-20T10:47:42;10.57;;;4.13;;
76675;SDS011;69204;55.350;36.906;2023-12-20T10:52:47;11.40;;;4.67;;
76675;SDS011;69204;55.350;36.906;2023-12-20T10:57:50;7.47;;;3.83;;
76675;SDS011;69204;55.350;36.906;2023-12-20T11:02:53;8.27;;;3.45;;
76675;SDS011;69204;55.350;36.906;2023-12-20T11:08:02;9.43;;;4.20;;
76675;SDS011;69204;55.350;36.906;2023-12-20T11:13:17;8.40;;;3.95;;
76675;SDS011;69204;55.350;36.906;2023-12-20T11:18:32;8.80;;;4.17;;
76675;SDS011;69204;55.350;36.906;2023-12-20T11:23:33;9.57;;;4.35;;
76675;SDS011;69204;55.350;36.906;2023-12-20T11:28:34;9.95;;;3.90;;
76675;SDS011;69204;55.350;36.906;2023-12-20T11:33:36;9.03;;;3.53;;
76675;SDS011;69204;55.350;36.906;2023-12-20T11:38:38;7.10;;;3.33;;
76675;SDS011;69204;55.350;36.906;2023-12-20T11:43:43;8.87;;;3.30;;
76675;SDS011;69204;55.350;36.906;2023-12-20T11:48:45;7.63;;;3.90;;
76675;SDS011;69204;55.350;36.906;2023-12-20T11:53:51;7.35;;;3.33;;
76675;SDS011;69204;55.350;36.906;2023-12-20T11:58:56;8.37;;;2.87;;
76675;SDS011;69204;55.350;36.906;2023-12-20T12:04:05;6.40;;;2.90;;
76675;SDS011;69204;55.350;36.906;2023-12-20T12:09:09;6.50;;;2.97;;
76675;SDS011;69204;55.350;36.906;2023-12-20T12:14:10;7.72;;;3.28;;
76675;SDS011;69204;55.350;36.906;2023-12-20T12:19:27;6.97;;;2.92;;
76675;SDS011;69204;55.350;36.906;2023-12-20T12:24:29;6.37;;;2.63;;
76675;SDS011;69204;55.350;36.906;2023-12-20T12:29:30;6.85;;;3.60;;
76675;SDS011;69204;55.350;36.906;2023-12-20T12:34:31;5.60;;;2.73;;
76675;SDS011;69204;55.350;36.906;2023-12-20T12:39:33;7.20;;;3.28;;
76675;SDS011;69204;55.350;36.906;2023-12-20T12:44:35;5.93;;;2.97;;
76675;SDS011;69204;55.350;36.906;2023-12-20T12:49:35;6.07;;;2.90;;
76675;SDS011;69204;55.350;36.906;2023-12-20T12:54:37;5.55;;;2.63;;
76675;SDS011;69204;55.350;36.906;2023-12-20T12:59:38;6.53;;;2.83;;
76675;SDS011;69204;55.350;36.906;2023-12-20T13:04:39;6.05;;;3.13;;
76675;SDS011;69204;55.350;36.906;2023-12-20T13:09:46;5.85;;;2.88;;
76675;SDS011;69204;55.350;36.906;2023-12-20T13:14:50;7.37;;;3.17;;
76675;SDS011;69204;55.350;36.906;2023-12-20T13:19:52;7.63;;;3.53;;
76675;SDS011;69204;55.350;36.906;2023-12-20T13:24:53;7.97;;;4.13;;
76675;SDS011;69204;55.350;36.906;2023-12-20T13:29:55;11.52;;;4.60;;
76675;SDS011;69204;55.350;36.906;2023-12-20T13:34:56;12.80;;;4.78;;
76675;SDS011;69204;55.350;36.906;2023-12-20T13:39:57;14.43;;;6.93;;
76675;SDS011;69204;55.350;36.906;2023-12-20T13:45:04;12.52;;;5.70;;
76675;SDS011;69204;55.350;36.906;2023-12-20T13:50:06;15.00;;;5.70;;
76675;SDS011;69204;55.350;36.906;2023-12-20T13:55:09;14.55;;;5.85;;
76675;SDS011;69204;55.350;36.906;2023-12-20T14:00:10;13.48;;;6.75;;
76675;SDS011;69204;55.350;36.906;2023-12-20T14:05:15;12.50;;;5.90;;
76675;SDS011;69204;55.350;36.906;2023-12-20T14:10:18;14.80;;;5.97;;
76675;SDS011;69204;55.350;36.906;2023-12-20T14:15:19;12.70;;;5.50;;
76675;SDS011;69204;55.350;36.906;2023-12-20T14:20:28;11.55;;;5.22;;
76675;SDS011;69204;55.350;36.906;2023-12-20T14:25:30;10.77;;;5.20;;
76675;SDS011;69204;55.350;36.906;2023-12-20T14:30:32;10.57;;;5.10;;
76675;SDS011;69204;55.350;36.906;2023-12-20T14:35:33;11.27;;;5.25;;
76675;SDS011;69204;55.350;36.906;2023-12-20T14:40:34;12.17;;;5.40;;
76675;SDS011;69204;55.350;36.906;2023-12-20T14:45:36;11.88;;;5.00;;
76675;SDS011;69204;55.350;36.906;2023-12-20T14:50:37;11.23;;;5.10;;
76675;SDS011;69204;55.350;36.906;2023-12-20T14:55:41;12.97;;;5.47;;
76675;SDS011;69204;55.350;36.906;2023-12-20T15:00:42;11.35;;;5.25;;
76675;SDS011;69204;55.350;36.906;2023-12-20T15:05:44;11.07;;;5.10;;
76675;SDS011;69204;55.350;36.906;2023-12-20T15:10:46;14.40;;;6.78;;
76675;SDS011;69204;55.350;36.906;2023-12-20T15:15:48;11.25;;;5.03;;
76675;SDS011;69204;55.350;36.906;2023-12-20T15:20:49;12.97;;;6.17;;
76675;SDS011;69204;55.350;36.906;2023-12-20T15:25:54;11.40;;;5.82;;
76675;SDS011;69204;55.350;36.906;2023-12-20T15:30:59;12.23;;;6.00;;
76675;SDS011;69204;55.350;36.906;2023-12-20T15:36:01;12.40;;;5.80;;
76675;SDS011;69204;55.350;36.906;2023-12-20T15:41:03;11.48;;;5.00;;
76675;SDS011;69204;55.350;36.906;2023-12-20T15:46:04;13.90;;;5.47;;
76675;SDS011;69204;55.350;36.906;2023-12-20T15:51:06;12.40;;;5.63;;
76675;SDS011;69204;55.350;36.906;2023-12-20T15:56:09;13.37;;;5.83;;
76675;SDS011;69204;55.350;36.906;2023-12-20T16:01:10;12.07;;;5.35;;
76675;SDS011;69204;55.350;36.906;2023-12-20T16:06:11;13.00;;;5.93;;
76675;SDS011;69204;55.350;36.906;2023-12-20T16:11:12;14.00;;;5.50;;
76675;SDS011;69204;55.350;36.906;2023-12-20T16:16:14;12.45;;;6.05;;
76675;SDS011;69204;55.350;36.906;2023-12-20T16:21:15;11.73;;;5.73;;
76675;SDS011;69204;55.350;36.906;2023-12-20T16:26:18;14.25;;;5.68;;
76675;SDS011;69204;55.350;36.906;2023-12-20T16:31:19;15.93;;;6.65;;
76675;SDS011;69204;55.350;36.906;2023-12-20T16:36:21;12.87;;;5.93;;
76675;SDS011;69204;55.350;36.906;2023-12-20T16:41:22;16.33;;;6.68;;
76675;SDS011;69204;55.350;36.906;2023-12-20T16:46:26;13.63;;;5.93;;
76675;SDS011;69204;55.350;36.906;2023-12-20T16:51:30;12.82;;;6.20;;
76675;SDS011;69204;55.350;36.906;2023-12-20T16:56:32;15.88;;;6.07;;
76675;SDS011;69204;55.350;36.906;2023-12-20T17:01:33;14.40;;;5.80;;
76675;SDS011;69204;55.350;36.906;2023-12-20T17:06:34;15.15;;;6.45;;
76675;SDS011;69204;55.350;36.906;2023-12-20T17:11:36;16.13;;;6.20;;
76675;SDS011;69204;55.350;36.906;2023-12-20T17:16:39;16.83;;;6.57;;
76675;SDS011;69204;55.350;36.906;2023-12-20T17:21:41;13.98;;;5.97;;
76675;SDS011;69204;55.350;36.906;2023-12-20T17:26:43;13.67;;;6.43;;
76675;SDS011;69204;55.350;36.906;2023-12-20T17:31:44;17.95;;;5.97;;
76675;SDS011;69204;55.350;36.906;2023-12-20T17:36:45;13.60;;;6.77;;
76675;SDS011;69204;55.350;36.906;2023-12-20T17:41:47;14.40;;;5.60;;
76675;SDS011;69204;55.350;36.906;2023-12-20T17:46:49;13.57;;;5.38;;
76675;SDS011;69204;55.350;36.906;2023-12-20T17:51:50;12.87;;;4.93;;
76675;SDS011;69204;55.350;36.906;2023-12-20T17:56:51;13.27;;;4.57;;
76675;SDS011;69204;55.350;36.906;2023-12-20T18:01:53;11.73;;;4.10;;
76675;SDS011;69204;55.350;36.906;2023-12-20T18:06:55;10.70;;;4.65;;
76675;SDS011;69204;55.350;36.906;2023-12-20T18:11:56;15.40;;;5.50;;
76675;SDS011;69204;55.350;36.906;2023-12-20T18:16:59;16.17;;;5.17;;
76675;SDS011;69204;55.350;36.906;2023-12-20T18:22:00;14.95;;;5.22;;
76675;SDS011;69204;55.350;36.906;2023-12-20T18:27:01;13.40;;;5.77;;
76675;SDS011;69204;55.350;36.906;2023-12-20T18:32:03;19.67;;;6.25;;
76675;SDS011;69204;55.350;36.906;2023-12-20T18:37:06;15.35;;;5.82;;
76675;SDS011;69204;55.350;36.906;2023-12-20T18:42:11;21.13;;;6.87;;
76675;SDS011;69204;55.350;36.906;2023-12-20T18:47:21;19.55;;;7.00;;
76675;SDS011;69204;55.350;36.906;2023-12-20T18:52:23;23.50;;;7.33;;
76675;SDS011;69204;55.350;36.906;2023-12-20T18:57:24;19.58;;;7.18;;
76675;SDS011;69204;55.350;36.906;2023-12-20T19:02:28;20.30;;;7.32;;
76675;SDS011;69204;55.350;36.906;2023-12-20T19:07:31;19.67;;;6.90;;
76675;SDS011;69204;55.350;36.906;2023-12-20T19:12:32;26.00;;;7.97;;
76675;SDS011;69204;55.350;36.906;2023-12-20T19:17:34;20.50;;;7.43;;
76675;SDS011;69204;55.350;36.906;2023-12-20T19:22:36;22.10;;;7.75;;
76675;SDS011;69204;55.350;36.906;2023-12-20T19:27:37;28.45;;;9.70;;
76675;SDS011;69204;55.350;36.906;2023-12-20T19:32:38;24.77;;;8.97;;
76675;SDS011;69204;55.350;36.906;2023-12-20T19:37:39;30.55;;;9.75;;
76675;SDS011;69204;55.350;36.906;2023-12-20T19:42:40;31.60;;;10.17;;
76675;SDS011;69204;55.350;36.906;2023-12-20T19:47:49;30.92;;;10.10;;
76675;SDS011;69204;55.350;36.906;2023-12-20T19:52:53;27.45;;;9.55;;
76675;SDS011;69204;55.350;36.906;2023-12-20T19:57:54;36.40;;;10.13;;
76675;SDS011;69204;55.350;36.906;2023-12-20T20:02:56;33.03;;;10.13;;
76675;SDS011;69204;55.350;36.906;2023-12-20T20:08:00;42.47;;;10.70;;
76675;SDS011;69204;55.350;36.906;2023-12-20T20:13:01;44.28;;;11.07;;
76675;SDS011;69204;55.350;36.906;2023-12-20T20:18:03;69.85;;;12.23;;
76675;SDS011;69204;55.350;36.906;2023-12-20T20:23:08;91.53;;;14.33;;
76675;SDS011;69204;55.350;36.906;2023-12-20T20:28:09;64.25;;;13.30;;
76675;SDS011;69204;55.350;36.906;2023-12-20T20:33:10;75.43;;;13.27;;
76675;SDS011;69204;55.350;36.906;2023-12-20T20:38:11;72.80;;;12.35;;
76675;SDS011;69204;55.350;36.906;2023-12-20T20:43:12;85.22;;;11.90;;
76675;SDS011;69204;55.350;36.906;2023-12-20T20:48:13;93.23;;;13.70;;
76675;SDS011;69204;55.350;36.906;2023-12-20T20:53:15;132.70;;;13.20;;
76675;SDS011;69204;55.350;36.906;2023-12-20T20:58:19;63.53;;;10.97;;
76675;SDS011;69204;55.350;36.906;2023-12-20T21:03:20;74.78;;;11.75;;
76675;SDS011;69204;55.350;36.906;2023-12-20T21:08:24;53.97;;;10.43;;
76675;SDS011;69204;55.350;36.906;2023-12-20T21:13:26;34.83;;;8.23;;
76675;SDS011;69204;55.350;36.906;2023-12-20T21:18:27;38.50;;;8.68;;
76675;SDS011;69204;55.350;36.906;2023-12-20T21:23:28;32.17;;;7.77;;
76675;SDS011;69204;55.350;36.906;2023-12-20T21:28:30;25.10;;;7.38;;
76675;SDS011;69204;55.350;36.906;2023-12-20T21:33:31;22.25;;;6.25;;
76675;SDS011;69204;55.350;36.906;2023-12-20T21:38:32;18.67;;;5.93;;
76675;SDS011;69204;55.350;36.906;2023-12-20T21:43:34;16.17;;;5.75;;
76675;SDS011;69204;55.350;36.906;2023-12-20T21:48:36;20.40;;;6.03;;
76675;SDS011;69204;55.350;36.906;2023-12-20T21:53:41;20.42;;;5.70;;
76675;SDS011;69204;55.350;36.906;2023-12-20T21:58:42;20.17;;;5.20;;
76675;SDS011;69204;55.350;36.906;2023-12-20T22:03:44;11.53;;;4.10;;
76675;SDS011;69204;55.350;36.906;2023-12-20T22:08:45;14.40;;;4.07;;
76675;SDS011;69204;55.350;36.906;2023-12-20T22:13:46;10.57;;;4.07;;
76675;SDS011;69204;55.350;36.906;2023-12-20T22:18:48;8.80;;;3.70;;
76675;SDS011;69204;55.350;36.906;2023-12-20T22:23:49;7.93;;;3.28;;
76675;SDS011;69204;55.350;36.906;2023-12-20T22:28:50;6.77;;;2.60;;
76675;SDS011;69204;55.350;36.906;2023-12-20T22:33:51;6.50;;;3.17;;
76675;SDS011;69204;55.350;36.906;2023-12-20T22:38:53;8.67;;;3.00;;
76675;SDS011;69204;55.350;36.906;2023-12-20T22:43:54;5.72;;;2.63;;
76675;SDS011;69204;55.350;36.906;2023-12-20T22:48:56;5.10;;;2.30;;
76675;SDS011;69204;55.350;36.906;2023-12-20T22:53:57;6.53;;;2.60;;
76675;SDS011;69204;55.350;36.906;2023-12-20T22:58:58;6.60;;;2.30;;
76675;SDS011;69204;55.350;36.906;2023-12-20T23:04:00;4.73;;;2.20;;
76675;SDS011;69204;55.350;36.906;2023-12-20T23:09:01;5.10;;;2.10;;
76675;SDS011;69204;55.350;36.906;2023-12-20T23:14:03;6.05;;;2.35;;
76675;SDS011;69204;55.350;36.906;2023-12-20T23:19:04;4.60;;;2.50;;
76675;SDS011;69204;55.350;36.906;2023-12-20T23:24:07;8.52;;;2.33;;
76675;SDS011;69204;55.350;36.906;2023-12-20T23:29:08;7.27;;;2.90;;
76675;SDS011;69204;55.350;36.906;2023-12-20T23:34:10;4.30;;;1.88;;
76675;SDS011;69204;55.350;36.906;2023-12-20T23:39:14;3.55;;;1.50;;
76675;SDS011;69204;55.350;36.906;2023-12-20T23:44:19;4.43;;;1.80;;
76675;SDS011;69204;55.350;36.906;2023-12-20T23:49:24;3.92;;;1.67;;
76675;SDS011;69204;55.350;36.906;2023-12-20T23:54:25;4.20;;;1.90;;
76675;SDS011;69204;55.350;36.906;2023-12-20T23:59:32;3.30;;;1.33;;
